LFBU/ANG METAR and TAF weather

Enter ICAO airport designator
Station Type Date Time Source
LFBU METAR 2020/04/08 22:00 UTC NOAA

LFBU 082200Z AUTO 04004KT CAVOK 16/06 Q1022


Station Type Date Time Source
LFBU Decoded METAR 2020/04/08 22:00 UTC NOAA

Station name not available
Apr 08, 2020 - 06:00 PM EDT / 2020.04.08 2200 UTC
Wind: from the NE (040 degrees) at 5 MPH (4 KT):0
Visibility: greater than 7 mile(s):0
Temperature: 60 F (16 C)
Dew Point: 42 F (6 C)
Relative Humidity: 51%
Pressure (altimeter): 30.18 in. Hg (1022 hPa)
ob: LFBU 082200Z AUTO 04004KT CAVOK 16/06 Q1022
cycle: 22

Station Type Date Time Source
LFBU TAF 2020/03/27 18:00 UTC NOAA

TAF
AMD LFBU 271856Z 2718/2818 CNL

Example: see airport list